sensor_id;sensor_type;location;lat;lon;timestamp;pressure;altitude;pressure_sealevel;temperature;humidity
36972;BME280;40554;52.122;20.678;2023-01-09T00:00:18;99571.73;;;2.27;100.00
36972;BME280;40554;52.122;20.678;2023-01-09T00:02:35;99565.98;;;2.27;100.00
36972;BME280;40554;52.122;20.678;2023-01-09T00:04:56;99564.94;;;2.27;100.00
36972;BME280;40554;52.122;20.678;2023-01-09T00:07:13;99565.66;;;2.26;100.00
36972;BME280;40554;52.122;20.678;2023-01-09T00:09:30;99572.62;;;2.27;100.00
36972;BME280;40554;52.122;20.678;2023-01-09T00:11:47;99572.85;;;2.26;100.00
36972;BME280;40554;52.122;20.678;2023-01-09T00:14:05;99573.73;;;2.26;100.00
36972;BME280;40554;52.122;20.678;2023-01-09T00:16:21;99579.52;;;2.25;100.00
36972;BME280;40554;52.122;20.678;2023-01-09T00:18:39;99581.12;;;2.24;100.00
36972;BME280;40554;52.122;20.678;2023-01-09T00:21:02;99583.55;;;2.24;100.00
36972;BME280;40554;52.122;20.678;2023-01-09T00:23:19;99584.55;;;2.25;100.00
36972;BME280;40554;52.122;20.678;2023-01-09T00:25:36;99583.85;;;2.25;100.00
36972;BME280;40554;52.122;20.678;2023-01-09T00:27:53;99585.06;;;2.26;100.00
36972;BME280;40554;52.122;20.678;2023-01-09T00:30:10;99580.32;;;2.26;100.00
36972;BME280;40554;52.122;20.678;2023-01-09T00:32:28;99581.33;;;2.27;100.00
36972;BME280;40554;52.122;20.678;2023-01-09T00:34:46;99583.76;;;2.27;100.00
36972;BME280;40554;52.122;20.678;2023-01-09T00:37:04;99574.14;;;2.28;100.00
36972;BME280;40554;52.122;20.678;2023-01-09T00:39:27;99573.50;;;2.27;100.00
36972;BME280;40554;52.122;20.678;2023-01-09T00:41:46;99580.10;;;2.27;100.00
36972;BME280;40554;52.122;20.678;2023-01-09T00:44:08;99571.89;;;2.28;100.00
36972;BME280;40554;52.122;20.678;2023-01-09T00:46:31;99572.90;;;2.28;100.00
36972;BME280;40554;52.122;20.678;2023-01-09T00:48:50;99581.40;;;2.29;100.00
36972;BME280;40554;52.122;20.678;2023-01-09T00:51:07;99572.31;;;2.30;100.00
36972;BME280;40554;52.122;20.678;2023-01-09T00:53:27;99563.90;;;2.31;100.00
36972;BME280;40554;52.122;20.678;2023-01-09T00:55:45;99563.34;;;2.31;100.00
36972;BME280;40554;52.122;20.678;2023-01-09T00:58:02;99558.48;;;2.31;100.00
36972;BME280;40554;52.122;20.678;2023-01-09T01:00:19;99553.27;;;2.31;100.00
36972;BME280;40554;52.122;20.678;2023-01-09T01:02:36;99546.15;;;2.30;100.00
36972;BME280;40554;52.122;20.678;2023-01-09T01:04:54;99545.45;;;2.30;100.00
36972;BME280;40554;52.122;20.678;2023-01-09T01:07:29;99539.66;;;2.30;100.00
36972;BME280;40554;52.122;20.678;2023-01-09T01:09:55;99535.27;;;2.31;100.00
36972;BME280;40554;52.122;20.678;2023-01-09T01:12:13;99530.94;;;2.30;100.00
36972;BME280;40554;52.122;20.678;2023-01-09T01:14:30;99527.67;;;2.29;100.00
36972;BME280;40554;52.122;20.678;2023-01-09T01:16:46;99525.29;;;2.28;100.00
36972;BME280;40554;52.122;20.678;2023-01-09T01:19:03;99523.41;;;2.28;100.00
36972;BME280;40554;52.122;20.678;2023-01-09T01:21:20;99526.92;;;2.27;100.00
36972;BME280;40554;52.122;20.678;2023-01-09T01:23:38;99522.16;;;2.28;100.00
36972;BME280;40554;52.122;20.678;2023-01-09T01:25:55;99519.02;;;2.28;100.00
36972;BME280;40554;52.122;20.678;2023-01-09T01:28:12;99518.86;;;2.28;100.00
36972;BME280;40554;52.122;20.678;2023-01-09T01:30:29;99522.69;;;2.28;100.00
36972;BME280;40554;52.122;20.678;2023-01-09T01:32:47;99516.35;;;2.29;100.00
36972;BME280;40554;52.122;20.678;2023-01-09T01:35:05;99510.23;;;2.30;100.00
36972;BME280;40554;52.122;20.678;2023-01-09T01:37:23;99510.24;;;2.29;100.00
36972;BME280;40554;52.122;20.678;2023-01-09T01:39:40;99510.80;;;2.28;100.00
36972;BME280;40554;52.122;20.678;2023-01-09T01:41:57;99513.44;;;2.28;100.00
36972;BME280;40554;52.122;20.678;2023-01-09T01:47:09;99525.72;;;2.27;100.00
36972;BME280;40554;52.122;20.678;2023-01-09T01:49:26;99527.59;;;2.28;100.00
36972;BME280;40554;52.122;20.678;2023-01-09T01:51:45;99524.25;;;2.28;100.00
36972;BME280;40554;52.122;20.678;2023-01-09T01:54:09;99522.66;;;2.29;100.00
36972;BME280;40554;52.122;20.678;2023-01-09T01:56:39;99509.55;;;2.29;100.00
36972;BME280;40554;52.122;20.678;2023-01-09T01:59:18;99512.30;;;2.30;100.00
36972;BME280;40554;52.122;20.678;2023-01-09T02:01:39;99514.84;;;2.32;100.00
36972;BME280;40554;52.122;20.678;2023-01-09T02:04:00;99517.37;;;2.33;100.00
36972;BME280;40554;52.122;20.678;2023-01-09T02:06:17;99518.40;;;2.33;100.00
36972;BME280;40554;52.122;20.678;2023-01-09T02:08:35;99512.80;;;2.34;100.00
36972;BME280;40554;52.122;20.678;2023-01-09T02:10:52;99513.77;;;2.36;100.00
36972;BME280;40554;52.122;20.678;2023-01-09T02:13:11;99500.50;;;2.36;100.00
36972;BME280;40554;52.122;20.678;2023-01-09T02:15:40;99502.38;;;2.37;100.00
36972;BME280;40554;52.122;20.678;2023-01-09T02:38:58;99483.20;;;2.43;100.00
36972;BME280;40554;52.122;20.678;2023-01-09T02:42:11;99486.48;;;2.44;100.00
36972;BME280;40554;52.122;20.678;2023-01-09T02:44:22;99486.09;;;2.46;100.00
36972;BME280;40554;52.122;20.678;2023-01-09T02:46:39;99484.29;;;2.47;100.00
36972;BME280;40554;52.122;20.678;2023-01-09T02:48:56;99485.65;;;2.48;100.00
36972;BME280;40554;52.122;20.678;2023-01-09T02:51:35;99484.08;;;2.48;100.00
36972;BME280;40554;52.122;20.678;2023-01-09T03:09:07;99467.39;;;2.53;100.00
36972;BME280;40554;52.122;20.678;2023-01-09T03:11:31;99467.55;;;2.53;100.00
36972;BME280;40554;52.122;20.678;2023-01-09T03:13:57;99467.28;;;2.55;100.00
36972;BME280;40554;52.122;20.678;2023-01-09T03:16:37;99458.16;;;2.56;100.00
36972;BME280;40554;52.122;20.678;2023-01-09T03:18:56;99452.69;;;2.57;100.00
36972;BME280;40554;52.122;20.678;2023-01-09T03:21:15;99448.13;;;2.57;100.00
36972;BME280;40554;52.122;20.678;2023-01-09T03:23:56;99442.39;;;2.57;100.00
36972;BME280;40554;52.122;20.678;2023-01-09T03:26:14;99436.46;;;2.57;100.00
36972;BME280;40554;52.122;20.678;2023-01-09T03:28:31;99437.52;;;2.57;100.00
36972;BME280;40554;52.122;20.678;2023-01-09T03:30:48;99432.82;;;2.57;100.00
36972;BME280;40554;52.122;20.678;2023-01-09T03:33:05;99424.33;;;2.56;100.00
36972;BME280;40554;52.122;20.678;2023-01-09T03:35:23;99426.63;;;2.55;100.00
36972;BME280;40554;52.122;20.678;2023-01-09T03:37:40;99417.58;;;2.55;100.00
36972;BME280;40554;52.122;20.678;2023-01-09T03:39:57;99414.84;;;2.54;100.00
36972;BME280;40554;52.122;20.678;2023-01-09T03:42:14;99410.33;;;2.53;100.00
36972;BME280;40554;52.122;20.678;2023-01-09T03:44:31;99410.35;;;2.52;100.00
36972;BME280;40554;52.122;20.678;2023-01-09T03:46:48;99408.99;;;2.52;100.00
36972;BME280;40554;52.122;20.678;2023-01-09T03:49:06;99403.58;;;2.52;100.00
36972;BME280;40554;52.122;20.678;2023-01-09T03:51:22;99400.80;;;2.52;100.00
36972;BME280;40554;52.122;20.678;2023-01-09T03:53:40;99401.67;;;2.52;100.00
36972;BME280;40554;52.122;20.678;2023-01-09T03:55:57;99400.45;;;2.52;100.00
36972;BME280;40554;52.122;20.678;2023-01-09T03:58:15;99393.18;;;2.51;100.00
36972;BME280;40554;52.122;20.678;2023-01-09T04:00:32;99393.20;;;2.50;100.00
36972;BME280;40554;52.122;20.678;2023-01-09T04:02:49;99393.74;;;2.50;100.00
36972;BME280;40554;52.122;20.678;2023-01-09T04:05:07;99393.33;;;2.48;100.00
36972;BME280;40554;52.122;20.678;2023-01-09T04:07:23;99383.92;;;2.48;100.00
36972;BME280;40554;52.122;20.678;2023-01-09T04:09:40;99389.55;;;2.47;100.00
36972;BME280;40554;52.122;20.678;2023-01-09T04:11:57;99389.04;;;2.46;100.00
36972;BME280;40554;52.122;20.678;2023-01-09T04:14:15;99386.64;;;2.46;100.00
36972;BME280;40554;52.122;20.678;2023-01-09T04:16:32;99394.37;;;2.44;100.00
36972;BME280;40554;52.122;20.678;2023-01-09T04:18:49;99394.52;;;2.45;100.00
36972;BME280;40554;52.122;20.678;2023-01-09T04:21:06;99391.74;;;2.44;100.00
36972;BME280;40554;52.122;20.678;2023-01-09T04:23:23;99394.22;;;2.43;100.00
36972;BME280;40554;52.122;20.678;2023-01-09T04:25:40;99398.11;;;2.43;100.00
36972;BME280;40554;52.122;20.678;2023-01-09T04:27:57;99397.45;;;2.42;100.00
36972;BME280;40554;52.122;20.678;2023-01-09T04:30:14;99396.98;;;2.41;100.00
36972;BME280;40554;52.122;20.678;2023-01-09T04:32:31;99394.96;;;2.39;100.00
36972;BME280;40554;52.122;20.678;2023-01-09T04:34:48;99395.66;;;2.40;100.00
36972;BME280;40554;52.122;20.678;2023-01-09T04:37:05;99396.52;;;2.40;100.00
36972;BME280;40554;52.122;20.678;2023-01-09T04:39:21;99400.85;;;2.40;100.00
36972;BME280;40554;52.122;20.678;2023-01-09T04:41:39;99398.45;;;2.39;100.00
36972;BME280;40554;52.122;20.678;2023-01-09T04:44:05;99399.66;;;2.39;100.00
36972;BME280;40554;52.122;20.678;2023-01-09T04:46:22;99401.41;;;2.39;100.00
36972;BME280;40554;52.122;20.678;2023-01-09T04:48:39;99399.80;;;2.40;100.00
36972;BME280;40554;52.122;20.678;2023-01-09T04:50:56;99389.89;;;2.39;100.00
36972;BME280;40554;52.122;20.678;2023-01-09T04:53:12;99388.16;;;2.39;100.00
36972;BME280;40554;52.122;20.678;2023-01-09T04:55:29;99385.88;;;2.40;100.00
36972;BME280;40554;52.122;20.678;2023-01-09T04:57:47;99380.09;;;2.40;100.00
36972;BME280;40554;52.122;20.678;2023-01-09T05:00:05;99377.79;;;2.41;100.00
36972;BME280;40554;52.122;20.678;2023-01-09T05:02:25;99376.02;;;2.41;100.00
36972;BME280;40554;52.122;20.678;2023-01-09T05:04:42;99372.52;;;2.42;100.00
36972;BME280;40554;52.122;20.678;2023-01-09T05:06:59;99370.42;;;2.42;100.00
36972;BME280;40554;52.122;20.678;2023-01-09T05:09:16;99370.06;;;2.42;100.00
36972;BME280;40554;52.122;20.678;2023-01-09T05:11:33;99367.63;;;2.41;100.00
36972;BME280;40554;52.122;20.678;2023-01-09T05:13:50;99366.09;;;2.41;100.00
36972;BME280;40554;52.122;20.678;2023-01-09T05:16:08;99365.59;;;2.40;100.00
36972;BME280;40554;52.122;20.678;2023-01-09T05:18:25;99362.77;;;2.41;100.00
36972;BME280;40554;52.122;20.678;2023-01-09T05:20:42;99364.02;;;2.40;100.00
36972;BME280;40554;52.122;20.678;2023-01-09T05:22:59;99360.52;;;2.41;100.00
36972;BME280;40554;52.122;20.678;2023-01-09T05:25:17;99353.59;;;2.40;100.00
36972;BME280;40554;52.122;20.678;2023-01-09T05:27:35;99344.33;;;2.40;100.00
36972;BME280;40554;52.122;20.678;2023-01-09T05:29:55;99342.13;;;2.39;100.00
36972;BME280;40554;52.122;20.678;2023-01-09T05:32:12;99341.64;;;2.39;100.00
36972;BME280;40554;52.122;20.678;2023-01-09T05:34:29;99342.02;;;2.38;100.00
36972;BME280;40554;52.122;20.678;2023-01-09T05:36:46;99341.92;;;2.36;100.00
36972;BME280;40554;52.122;20.678;2023-01-09T05:39:04;99340.48;;;2.34;100.00
36972;BME280;40554;52.122;20.678;2023-01-09T05:41:23;99341.64;;;2.32;100.00
36972;BME280;40554;52.122;20.678;2023-01-09T05:43:42;99343.31;;;2.30;100.00
36972;BME280;40554;52.122;20.678;2023-01-09T05:45:59;99338.00;;;2.28;100.00
36972;BME280;40554;52.122;20.678;2023-01-09T05:48:16;99339.06;;;2.27;100.00
36972;BME280;40554;52.122;20.678;2023-01-09T05:50:43;99340.50;;;2.27;100.00
36972;BME280;40554;52.122;20.678;2023-01-09T05:53:00;99338.08;;;2.26;100.00
36972;BME280;40554;52.122;20.678;2023-01-09T05:55:17;99340.72;;;2.26;100.00
36972;BME280;40554;52.122;20.678;2023-01-09T05:57:34;99335.63;;;2.26;100.00
36972;BME280;40554;52.122;20.678;2023-01-09T05:59:50;99333.02;;;2.26;100.00
36972;BME280;40554;52.122;20.678;2023-01-09T06:02:07;99331.45;;;2.26;100.00
36972;BME280;40554;52.122;20.678;2023-01-09T06:04:24;99324.24;;;2.27;100.00
36972;BME280;40554;52.122;20.678;2023-01-09T06:06:45;99322.13;;;2.28;100.00
36972;BME280;40554;52.122;20.678;2023-01-09T06:09:02;99322.08;;;2.29;100.00
36972;BME280;40554;52.122;20.678;2023-01-09T06:11:19;99319.27;;;2.29;100.00
36972;BME280;40554;52.122;20.678;2023-01-09T06:13:36;99320.25;;;2.30;100.00
36972;BME280;40554;52.122;20.678;2023-01-09T06:15:53;99321.44;;;2.31;100.00
36972;BME280;40554;52.122;20.678;2023-01-09T06:18:10;99321.45;;;2.31;100.00
36972;BME280;40554;52.122;20.678;2023-01-09T06:20:26;99322.13;;;2.31;100.00
36972;BME280;40554;52.122;20.678;2023-01-09T06:22:43;99326.69;;;2.30;100.00
36972;BME280;40554;52.122;20.678;2023-01-09T06:25:00;99328.96;;;2.30;100.00
36972;BME280;40554;52.122;20.678;2023-01-09T06:27:17;99329.86;;;2.30;100.00
36972;BME280;40554;52.122;20.678;2023-01-09T06:29:34;99322.56;;;2.29;100.00
36972;BME280;40554;52.122;20.678;2023-01-09T06:31:51;99315.48;;;2.28;100.00
36972;BME280;40554;52.122;20.678;2023-01-09T06:34:08;99319.20;;;2.27;100.00
36972;BME280;40554;52.122;20.678;2023-01-09T06:36:25;99325.21;;;2.25;100.00
36972;BME280;40554;52.122;20.678;2023-01-09T06:38:42;99324.27;;;2.23;100.00
36972;BME280;40554;52.122;20.678;2023-01-09T06:40:59;99321.02;;;2.22;100.00
36972;BME280;40554;52.122;20.678;2023-01-09T06:43:16;99316.65;;;2.22;100.00
36972;BME280;40554;52.122;20.678;2023-01-09T06:45:33;99310.70;;;2.22;100.00
36972;BME280;40554;52.122;20.678;2023-01-09T06:47:50;99310.52;;;2.23;100.00
36972;BME280;40554;52.122;20.678;2023-01-09T06:50:07;99308.54;;;2.24;100.00
36972;BME280;40554;52.122;20.678;2023-01-09T06:52:24;99300.82;;;2.25;100.00
36972;BME280;40554;52.122;20.678;2023-01-09T06:54:41;99293.45;;;2.26;100.00
36972;BME280;40554;52.122;20.678;2023-01-09T06:56:59;99293.39;;;2.27;100.00
36972;BME280;40554;52.122;20.678;2023-01-09T06:59:16;99303.45;;;2.28;100.00
36972;BME280;40554;52.122;20.678;2023-01-09T07:01:33;99309.34;;;2.29;100.00
36972;BME280;40554;52.122;20.678;2023-01-09T07:03:50;99305.05;;;2.31;100.00
36972;BME280;40554;52.122;20.678;2023-01-09T07:06:07;99301.33;;;2.32;100.00
36972;BME280;40554;52.122;20.678;2023-01-09T07:08:24;99298.56;;;2.35;100.00
36972;BME280;40554;52.122;20.678;2023-01-09T07:10:42;99299.05;;;2.35;100.00
36972;BME280;40554;52.122;20.678;2023-01-09T07:12:59;99299.00;;;2.36;100.00
36972;BME280;40554;52.122;20.678;2023-01-09T07:15:16;99299.59;;;2.38;100.00
36972;BME280;40554;52.122;20.678;2023-01-09T07:17:33;99300.18;;;2.40;100.00
36972;BME280;40554;52.122;20.678;2023-01-09T07:19:50;99296.40;;;2.43;100.00
36972;BME280;40554;52.122;20.678;2023-01-09T07:22:07;99297.70;;;2.45;100.00
36972;BME280;40554;52.122;20.678;2023-01-09T07:24:26;99301.59;;;2.47;100.00
36972;BME280;40554;52.122;20.678;2023-01-09T07:26:43;99303.21;;;2.50;100.00
36972;BME280;40554;52.122;20.678;2023-01-09T07:29:00;99297.54;;;2.51;100.00
36972;BME280;40554;52.122;20.678;2023-01-09T07:31:17;99299.00;;;2.54;100.00
36972;BME280;40554;52.122;20.678;2023-01-09T07:33:34;99300.27;;;2.56;100.00
36972;BME280;40554;52.122;20.678;2023-01-09T07:35:51;99302.21;;;2.59;100.00
36972;BME280;40554;52.122;20.678;2023-01-09T07:38:08;99295.13;;;2.60;100.00
36972;BME280;40554;52.122;20.678;2023-01-09T07:40:25;99291.48;;;2.63;100.00
36972;BME280;40554;52.122;20.678;2023-01-09T07:42:42;99292.86;;;2.67;100.00
36972;BME280;40554;52.122;20.678;2023-01-09T07:45:00;99285.52;;;2.70;100.00
36972;BME280;40554;52.122;20.678;2023-01-09T07:47:17;99283.60;;;2.74;100.00
36972;BME280;40554;52.122;20.678;2023-01-09T07:49:34;99279.83;;;2.76;100.00
36972;BME280;40554;52.122;20.678;2023-01-09T07:51:51;99274.98;;;2.78;100.00
36972;BME280;40554;52.122;20.678;2023-01-09T07:54:09;99279.00;;;2.81;100.00
36972;BME280;40554;52.122;20.678;2023-01-09T07:56:26;99268.20;;;2.84;100.00
36972;BME280;40554;52.122;20.678;2023-01-09T07:58:43;99273.10;;;2.87;100.00
36972;BME280;40554;52.122;20.678;2023-01-09T08:01:00;99272.06;;;2.90;100.00
36972;BME280;40554;52.122;20.678;2023-01-09T08:03:17;99275.05;;;2.93;100.00
36972;BME280;40554;52.122;20.678;2023-01-09T08:05:34;99272.17;;;2.95;100.00
36972;BME280;40554;52.122;20.678;2023-01-09T08:07:51;99275.38;;;2.97;100.00
36972;BME280;40554;52.122;20.678;2023-01-09T08:10:09;99277.88;;;2.99;100.00
36972;BME280;40554;52.122;20.678;2023-01-09T08:12:27;99278.26;;;3.02;100.00
36972;BME280;40554;52.122;20.678;2023-01-09T08:14:44;99274.63;;;3.04;100.00
36972;BME280;40554;52.122;20.678;2023-01-09T08:17:01;99265.10;;;3.06;100.00
36972;BME280;40554;52.122;20.678;2023-01-09T08:19:18;99260.13;;;3.07;100.00
36972;BME280;40554;52.122;20.678;2023-01-09T08:21:35;99258.24;;;3.10;100.00
36972;BME280;40554;52.122;20.678;2023-01-09T08:23:52;99256.58;;;3.12;100.00
36972;BME280;40554;52.122;20.678;2023-01-09T08:26:09;99261.91;;;3.13;100.00
36972;BME280;40554;52.122;20.678;2023-01-09T08:28:26;99262.34;;;3.15;100.00
36972;BME280;40554;52.122;20.678;2023-01-09T08:30:43;99258.04;;;3.17;100.00
36972;BME280;40554;52.122;20.678;2023-01-09T08:33:00;99260.07;;;3.18;100.00
36972;BME280;40554;52.122;20.678;2023-01-09T08:35:18;99266.25;;;3.20;100.00
36972;BME280;40554;52.122;20.678;2023-01-09T08:37:35;99264.57;;;3.22;100.00
36972;BME280;40554;52.122;20.678;2023-01-09T08:39:52;99260.06;;;3.24;100.00
36972;BME280;40554;52.122;20.678;2023-01-09T08:42:09;99254.36;;;3.26;100.00
36972;BME280;40554;52.122;20.678;2023-01-09T08:44:45;99254.31;;;3.27;100.00
36972;BME280;40554;52.122;20.678;2023-01-09T08:47:22;99254.77;;;3.28;100.00
36972;BME280;40554;52.122;20.678;2023-01-09T08:49:39;99250.51;;;3.29;100.00
36972;BME280;40554;52.122;20.678;2023-01-09T08:51:56;99253.14;;;3.29;100.00
36972;BME280;40554;52.122;20.678;2023-01-09T08:54:13;99250.21;;;3.28;100.00
36972;BME280;40554;52.122;20.678;2023-01-09T08:56:30;99247.95;;;3.28;100.00
36972;BME280;40554;52.122;20.678;2023-01-09T08:58:47;99240.27;;;3.28;100.00
36972;BME280;40554;52.122;20.678;2023-01-09T09:01:05;99240.44;;;3.28;100.00
36972;BME280;40554;52.122;20.678;2023-01-09T09:03:23;99234.64;;;3.29;100.00
36972;BME280;40554;52.122;20.678;2023-01-09T09:05:40;99236.66;;;3.30;100.00
36972;BME280;40554;52.122;20.678;2023-01-09T09:07:57;99232.79;;;3.30;100.00
36972;BME280;40554;52.122;20.678;2023-01-09T09:10:17;99237.52;;;3.30;100.00
36972;BME280;40554;52.122;20.678;2023-01-09T09:12:40;99235.04;;;3.31;100.00
36972;BME280;40554;52.122;20.678;2023-01-09T09:14:57;99237.04;;;3.33;100.00
36972;BME280;40554;52.122;20.678;2023-01-09T09:17:35;99240.94;;;3.35;100.00
36972;BME280;40554;52.122;20.678;2023-01-09T09:19:55;99241.94;;;3.36;100.00
36972;BME280;40554;52.122;20.678;2023-01-09T09:22:15;99235.40;;;3.38;100.00
36972;BME280;40554;52.122;20.678;2023-01-09T09:24:35;99240.27;;;3.41;100.00
36972;BME280;40554;52.122;20.678;2023-01-09T09:26:52;99235.95;;;3.43;100.00
36972;BME280;40554;52.122;20.678;2023-01-09T09:29:09;99234.38;;;3.46;100.00
36972;BME280;40554;52.122;20.678;2023-01-09T09:31:27;99230.92;;;3.48;100.00
36972;BME280;40554;52.122;20.678;2023-01-09T09:33:44;99230.85;;;3.49;100.00
36972;BME280;40554;52.122;20.678;2023-01-09T09:36:07;99231.80;;;3.51;100.00
36972;BME280;40554;52.122;20.678;2023-01-09T09:38:24;99228.35;;;3.53;100.00
36972;BME280;40554;52.122;20.678;2023-01-09T09:41:06;99225.73;;;3.57;100.00
36972;BME280;40554;52.122;20.678;2023-01-09T09:46:46;99208.59;;;3.63;100.00
36972;BME280;40554;52.122;20.678;2023-01-09T09:49:23;99207.52;;;3.66;100.00
36972;BME280;40554;52.122;20.678;2023-01-09T09:52:04;99202.64;;;3.69;100.00
36972;BME280;40554;52.122;20.678;2023-01-09T09:54:37;99202.20;;;3.73;100.00
36972;BME280;40554;52.122;20.678;2023-01-09T09:56:58;99200.36;;;3.77;100.00
36972;BME280;40554;52.122;20.678;2023-01-09T09:59:19;99203.21;;;3.80;100.00
36972;BME280;40554;52.122;20.678;2023-01-09T10:01:40;99207.02;;;3.81;100.00
36972;BME280;40554;52.122;20.678;2023-01-09T10:03:59;99210.19;;;3.80;100.00
36972;BME280;40554;52.122;20.678;2023-01-09T10:06:31;99212.92;;;3.81;100.00
36972;BME280;40554;52.122;20.678;2023-01-09T10:11:31;99206.36;;;3.83;100.00
36972;BME280;40554;52.122;20.678;2023-01-09T10:13:50;99200.89;;;3.84;100.00
36972;BME280;40554;52.122;20.678;2023-01-09T10:30:49;99189.26;;;3.85;100.00
36972;BME280;40554;52.122;20.678;2023-01-09T10:38:33;99166.54;;;3.88;100.00
36972;BME280;40554;52.122;20.678;2023-01-09T10:40:59;99160.73;;;3.91;100.00
36972;BME280;40554;52.122;20.678;2023-01-09T10:44:00;99162.14;;;3.94;100.00
36972;BME280;40554;52.122;20.678;2023-01-09T10:46:24;99158.33;;;3.97;100.00
36972;BME280;40554;52.122;20.678;2023-01-09T10:48:46;99155.05;;;3.98;100.00
36972;BME280;40554;52.122;20.678;2023-01-09T10:51:40;99156.55;;;4.03;100.00
36972;BME280;40554;52.122;20.678;2023-01-09T10:53:59;99151.74;;;4.07;100.00
36972;BME280;40554;52.122;20.678;2023-01-09T10:56:25;99145.21;;;4.11;100.00
36972;BME280;40554;52.122;20.678;2023-01-09T10:58:43;99142.77;;;4.14;100.00
36972;BME280;40554;52.122;20.678;2023-01-09T11:01:00;99141.48;;;4.17;100.00
36972;BME280;40554;52.122;20.678;2023-01-09T11:03:21;99138.73;;;4.19;100.00
36972;BME280;40554;52.122;20.678;2023-01-09T11:05:39;99132.27;;;4.22;100.00
36972;BME280;40554;52.122;20.678;2023-01-09T11:08:14;99132.70;;;4.24;100.00
36972;BME280;40554;52.122;20.678;2023-01-09T11:10:47;99130.98;;;4.26;100.00
36972;BME280;40554;52.122;20.678;2023-01-09T11:13:27;99127.16;;;4.28;100.00
36972;BME280;40554;52.122;20.678;2023-01-09T11:15:45;99118.68;;;4.30;100.00
36972;BME280;40554;52.122;20.678;2023-01-09T11:18:21;99118.77;;;4.31;100.00
36972;BME280;40554;52.122;20.678;2023-01-09T11:20:41;99113.10;;;4.35;100.00
36972;BME280;40554;52.122;20.678;2023-01-09T11:22:58;99110.95;;;4.38;100.00
36972;BME280;40554;52.122;20.678;2023-01-09T11:25:18;99104.86;;;4.41;100.00
36972;BME280;40554;52.122;20.678;2023-01-09T11:27:35;99101.77;;;4.43;100.00
36972;BME280;40554;52.122;20.678;2023-01-09T11:30:18;99095.83;;;4.45;100.00
36972;BME280;40554;52.122;20.678;2023-01-09T11:32:36;99092.75;;;4.47;100.00
36972;BME280;40554;52.122;20.678;2023-01-09T11:34:53;99090.27;;;4.47;100.00
36972;BME280;40554;52.122;20.678;2023-01-09T11:37:12;99086.66;;;4.47;100.00
36972;BME280;40554;52.122;20.678;2023-01-09T11:39:34;99089.91;;;4.45;100.00
36972;BME280;40554;52.122;20.678;2023-01-09T11:41:58;99085.42;;;4.43;100.00
36972;BME280;40554;52.122;20.678;2023-01-09T11:44:15;99087.61;;;4.42;100.00
36972;BME280;40554;52.122;20.678;2023-01-09T11:46:38;99082.16;;;4.40;100.00
36972;BME280;40554;52.122;20.678;2023-01-09T11:48:58;99076.15;;;4.38;100.00
36972;BME280;40554;52.122;20.678;2023-01-09T11:51:18;99078.41;;;4.38;100.00
36972;BME280;40554;52.122;20.678;2023-01-09T11:53:47;99075.47;;;4.38;100.00
36972;BME280;40554;52.122;20.678;2023-01-09T11:56:08;99074.83;;;4.37;100.00
36972;BME280;40554;52.122;20.678;2023-01-09T11:58:33;99069.58;;;4.37;100.00
36972;BME280;40554;52.122;20.678;2023-01-09T12:06:29;99056.11;;;4.34;100.00
36972;BME280;40554;52.122;20.678;2023-01-09T12:08:54;99056.83;;;4.34;100.00
36972;BME280;40554;52.122;20.678;2023-01-09T12:16:39;99052.16;;;4.33;100.00
36972;BME280;40554;52.122;20.678;2023-01-09T12:21:48;99049.09;;;4.35;100.00
36972;BME280;40554;52.122;20.678;2023-01-09T12:24:29;99049.67;;;4.36;100.00
36972;BME280;40554;52.122;20.678;2023-01-09T12:27:30;99048.68;;;4.38;100.00
36972;BME280;40554;52.122;20.678;2023-01-09T12:43:02;99028.60;;;4.46;100.00
36972;BME280;40554;52.122;20.678;2023-01-09T12:45:51;99034.40;;;4.48;100.00
36972;BME280;40554;52.122;20.678;2023-01-09T12:53:35;99036.85;;;4.56;100.00
36972;BME280;40554;52.122;20.678;2023-01-09T12:56:03;99029.69;;;4.58;100.00
36972;BME280;40554;52.122;20.678;2023-01-09T13:01:16;99029.19;;;4.63;100.00
36972;BME280;40554;52.122;20.678;2023-01-09T13:03:44;99021.89;;;4.65;100.00
36972;BME280;40554;52.122;20.678;2023-01-09T13:06:07;99023.81;;;4.68;100.00
36972;BME280;40554;52.122;20.678;2023-01-09T13:08:43;99019.75;;;4.72;100.00
36972;BME280;40554;52.122;20.678;2023-01-09T13:13:44;99017.10;;;4.77;100.00
36972;BME280;40554;52.122;20.678;2023-01-09T13:16:11;99017.41;;;4.80;100.00
36972;BME280;40554;52.122;20.678;2023-01-09T13:18:51;99022.48;;;4.83;100.00
36972;BME280;40554;52.122;20.678;2023-01-09T13:21:11;99014.60;;;4.86;100.00
36972;BME280;40554;52.122;20.678;2023-01-09T13:26:41;99008.98;;;4.91;100.00
36972;BME280;40554;52.122;20.678;2023-01-09T13:34:19;99004.34;;;4.98;100.00
36972;BME280;40554;52.122;20.678;2023-01-09T13:36:45;99008.77;;;4.99;100.00
36972;BME280;40554;52.122;20.678;2023-01-09T13:39:03;99002.67;;;5.01;100.00
36972;BME280;40554;52.122;20.678;2023-01-09T13:41:21;98998.85;;;5.03;100.00
36972;BME280;40554;52.122;20.678;2023-01-09T13:44:21;99002.91;;;5.05;100.00
36972;BME280;40554;52.122;20.678;2023-01-09T13:46:39;99004.38;;;5.07;100.00
36972;BME280;40554;52.122;20.678;2023-01-09T13:48:57;99002.55;;;5.09;100.00
36972;BME280;40554;52.122;20.678;2023-01-09T13:53:53;99008.14;;;5.11;100.00
36972;BME280;40554;52.122;20.678;2023-01-09T13:56:10;99002.58;;;5.14;100.00
36972;BME280;40554;52.122;20.678;2023-01-09T13:58:27;99003.34;;;5.15;100.00
36972;BME280;40554;52.122;20.678;2023-01-09T14:00:50;99005.88;;;5.17;100.00
36972;BME280;40554;52.122;20.678;2023-01-09T14:07:44;99006.98;;;5.21;100.00
36972;BME280;40554;52.122;20.678;2023-01-09T14:10:22;99007.22;;;5.23;100.00
36972;BME280;40554;52.122;20.678;2023-01-09T14:12:40;99009.23;;;5.24;100.00